<?xml version="1.0" encoding="UTF-8" standalone="no" ?>
<gpx xmlns="http://www.topografix.com/GPX/1/1" xmlns:xsi="http://www.w3.org/2001/XMLSchema-instance" xsi:schemaLocation="http://www.topografix.com/GPX/1/1 http://www.topografix.com/GPX/1/1/gpx.xsd" version="1.1" creator="VisuGPX - https://www.visugpx.com">
  <metadata>
    <name>pechbusque-veille-toulouse2021-04-25 11:20:44</name>
  </metadata>
  <trk>
    <name><![CDATA[2021-04-25 11:20:44]]></name>
    <trkseg>
      <trkpt lat="43.52913" lon="1.45714">
        <ele>252.96</ele>
        <time>2021-04-25T08:05:03Z</time>
      </trkpt>
      <trkpt lat="43.52913" lon="1.45714">
        <ele>252.96</ele>
        <time>2021-04-25T08:05:04Z</time>
      </trkpt>
      <trkpt lat="43.52908" lon="1.45715">
        <ele>253.44</ele>
        <time>2021-04-25T08:05:18Z</time>
      </trkpt>
      <trkpt lat="43.52897" lon="1.45723">
        <ele>253.44</ele>
        <time>2021-04-25T08:05:35Z</time>
      </trkpt>
      <trkpt lat="43.5289" lon="1.45734">
        <ele>253.93</ele>
        <time>2021-04-25T08:05:48Z</time>
      </trkpt>
      <trkpt lat="43.52869" lon="1.45754">
        <ele>254.41</ele>
        <time>2021-04-25T08:06:06Z</time>
      </trkpt>
      <trkpt lat="43.52865" lon="1.45761">
        <ele>254.89</ele>
        <time>2021-04-25T08:06:10Z</time>
      </trkpt>
      <trkpt lat="43.52844" lon="1.45791">
        <ele>256.81</ele>
        <time>2021-04-25T08:06:28Z</time>
      </trkpt>
      <trkpt lat="43.52824" lon="1.45814">
        <ele>256.81</ele>
        <time>2021-04-25T08:06:47Z</time>
      </trkpt>
      <trkpt lat="43.52819" lon="1.45818">
        <ele>256.81</ele>
        <time>2021-04-25T08:06:51Z</time>
      </trkpt>
      <trkpt lat="43.52801" lon="1.4584">
        <ele>257.29</ele>
        <time>2021-04-25T08:07:10Z</time>
      </trkpt>
      <trkpt lat="43.52785" lon="1.45865">
        <ele>257.77</ele>
        <time>2021-04-25T08:07:27Z</time>
      </trkpt>
      <trkpt lat="43.52782" lon="1.45878">
        <ele>257.77</ele>
        <time>2021-04-25T08:07:40Z</time>
      </trkpt>
      <trkpt lat="43.52776" lon="1.45885">
        <ele>257.77</ele>
        <time>2021-04-25T08:07:47Z</time>
      </trkpt>
      <trkpt lat="43.52756" lon="1.4589">
        <ele>259.21</ele>
        <time>2021-04-25T08:07:59Z</time>
      </trkpt>
      <trkpt lat="43.52754" lon="1.45888">
        <ele>258.25</ele>
        <time>2021-04-25T08:08:01Z</time>
      </trkpt>
      <trkpt lat="43.52733" lon="1.45878">
        <ele>256.33</ele>
        <time>2021-04-25T08:08:17Z</time>
      </trkpt>
      <trkpt lat="43.52717" lon="1.45862">
        <ele>252.96</ele>
        <time>2021-04-25T08:08:34Z</time>
      </trkpt>
      <trkpt lat="43.52705" lon="1.45849">
        <ele>249.6</ele>
        <time>2021-04-25T08:08:47Z</time>
      </trkpt>
      <trkpt lat="43.52697" lon="1.45839">
        <ele>246.72</ele>
        <time>2021-04-25T08:08:56Z</time>
      </trkpt>
      <trkpt lat="43.52688" lon="1.45822">
        <ele>243.35</ele>
        <time>2021-04-25T08:09:10Z</time>
      </trkpt>
      <trkpt lat="43.52684" lon="1.45812">
        <ele>241.91</ele>
        <time>2021-04-25T08:09:17Z</time>
      </trkpt>
      <trkpt lat="43.52681" lon="1.45806">
        <ele>241.43</ele>
        <time>2021-04-25T08:09:21Z</time>
      </trkpt>
      <trkpt lat="43.52673" lon="1.45792">
        <ele>238.54</ele>
        <time>2021-04-25T08:09:31Z</time>
      </trkpt>
      <trkpt lat="43.52662" lon="1.45775">
        <ele>234.7</ele>
        <time>2021-04-25T08:09:46Z</time>
      </trkpt>
      <trkpt lat="43.52652" lon="1.45761">
        <ele>231.33</ele>
        <time>2021-04-25T08:09:59Z</time>
      </trkpt>
      <trkpt lat="43.52639" lon="1.45751">
        <ele>227.97</ele>
        <time>2021-04-25T08:10:11Z</time>
      </trkpt>
      <trkpt lat="43.52628" lon="1.45737">
        <ele>224.61</ele>
        <time>2021-04-25T08:10:22Z</time>
      </trkpt>
      <trkpt lat="43.52614" lon="1.45719">
        <ele>221.72</ele>
        <time>2021-04-25T08:10:37Z</time>
      </trkpt>
      <trkpt lat="43.52604" lon="1.45707">
        <ele>218.36</ele>
        <time>2021-04-25T08:10:47Z</time>
      </trkpt>
      <trkpt lat="43.52586" lon="1.45683">
        <ele>214.51</ele>
        <time>2021-04-25T08:11:04Z</time>
      </trkpt>
      <trkpt lat="43.52566" lon="1.45665">
        <ele>213.07</ele>
        <time>2021-04-25T08:11:20Z</time>
      </trkpt>
      <trkpt lat="43.52537" lon="1.45639">
        <ele>212.11</ele>
        <time>2021-04-25T08:11:42Z</time>
      </trkpt>
      <trkpt lat="43.52517" lon="1.45617">
        <ele>213.55</ele>
        <time>2021-04-25T08:11:56Z</time>
      </trkpt>
      <trkpt lat="43.52504" lon="1.45603">
        <ele>216.91</ele>
        <time>2021-04-25T08:12:13Z</time>
      </trkpt>
      <trkpt lat="43.52487" lon="1.45592">
        <ele>219.8</ele>
        <time>2021-04-25T08:12:29Z</time>
      </trkpt>
      <trkpt lat="43.52481" lon="1.45581">
        <ele>223.16</ele>
        <time>2021-04-25T08:12:43Z</time>
      </trkpt>
      <trkpt lat="43.52475" lon="1.4557">
        <ele>226.53</ele>
        <time>2021-04-25T08:12:55Z</time>
      </trkpt>
      <trkpt lat="43.52475" lon="1.45543">
        <ele>229.89</ele>
        <time>2021-04-25T08:13:17Z</time>
      </trkpt>
      <trkpt lat="43.52466" lon="1.45522">
        <ele>232.78</ele>
        <time>2021-04-25T08:13:39Z</time>
      </trkpt>
      <trkpt lat="43.52458" lon="1.45504">
        <ele>235.18</ele>
        <time>2021-04-25T08:13:53Z</time>
      </trkpt>
      <trkpt lat="43.52444" lon="1.45472">
        <ele>235.18</ele>
        <time>2021-04-25T08:14:12Z</time>
      </trkpt>
      <trkpt lat="43.52425" lon="1.45446">
        <ele>235.66</ele>
        <time>2021-04-25T08:14:32Z</time>
      </trkpt>
      <trkpt lat="43.52408" lon="1.45431">
        <ele>235.66</ele>
        <time>2021-04-25T08:14:49Z</time>
      </trkpt>
      <trkpt lat="43.5239" lon="1.45419">
        <ele>232.3</ele>
        <time>2021-04-25T08:15:06Z</time>
      </trkpt>
      <trkpt lat="43.52371" lon="1.45406">
        <ele>229.41</ele>
        <time>2021-04-25T08:15:21Z</time>
      </trkpt>
      <trkpt lat="43.52352" lon="1.45393">
        <ele>225.57</ele>
        <time>2021-04-25T08:15:36Z</time>
      </trkpt>
      <trkpt lat="43.52328" lon="1.45382">
        <ele>222.2</ele>
        <time>2021-04-25T08:15:54Z</time>
      </trkpt>
      <trkpt lat="43.52303" lon="1.45366">
        <ele>221.72</ele>
        <time>2021-04-25T08:16:13Z</time>
      </trkpt>
      <trkpt lat="43.52284" lon="1.45351">
        <ele>221.72</ele>
        <time>2021-04-25T08:16:29Z</time>
      </trkpt>
      <trkpt lat="43.52263" lon="1.45333">
        <ele>224.61</ele>
        <time>2021-04-25T08:16:47Z</time>
      </trkpt>
      <trkpt lat="43.52251" lon="1.45327">
        <ele>225.09</ele>
        <time>2021-04-25T08:16:58Z</time>
      </trkpt>
      <trkpt lat="43.52228" lon="1.45305">
        <ele>221.72</ele>
        <time>2021-04-25T08:17:17Z</time>
      </trkpt>
      <trkpt lat="43.52222" lon="1.45292">
        <ele>218.84</ele>
        <time>2021-04-25T08:17:27Z</time>
      </trkpt>
      <trkpt lat="43.52213" lon="1.45277">
        <ele>214.99</ele>
        <time>2021-04-25T08:17:39Z</time>
      </trkpt>
      <trkpt lat="43.52199" lon="1.45249">
        <ele>214.03</ele>
        <time>2021-04-25T08:17:59Z</time>
      </trkpt>
      <trkpt lat="43.52192" lon="1.45217">
        <ele>215.47</ele>
        <time>2021-04-25T08:18:17Z</time>
      </trkpt>
      <trkpt lat="43.52189" lon="1.45179">
        <ele>218.84</ele>
        <time>2021-04-25T08:18:36Z</time>
      </trkpt>
      <trkpt lat="43.52182" lon="1.45157">
        <ele>222.2</ele>
        <time>2021-04-25T08:18:56Z</time>
      </trkpt>
      <trkpt lat="43.52182" lon="1.45137">
        <ele>225.57</ele>
        <time>2021-04-25T08:19:14Z</time>
      </trkpt>
      <trkpt lat="43.52173" lon="1.45125">
        <ele>228.45</ele>
        <time>2021-04-25T08:19:32Z</time>
      </trkpt>
      <trkpt lat="43.52173" lon="1.45112">
        <ele>229.89</ele>
        <time>2021-04-25T08:19:44Z</time>
      </trkpt>
      <trkpt lat="43.52172" lon="1.45103">
        <ele>233.74</ele>
        <time>2021-04-25T08:19:59Z</time>
      </trkpt>
      <trkpt lat="43.52167" lon="1.45093">
        <ele>237.1</ele>
        <time>2021-04-25T08:20:12Z</time>
      </trkpt>
      <trkpt lat="43.52163" lon="1.45076">
        <ele>239.99</ele>
        <time>2021-04-25T08:20:26Z</time>
      </trkpt>
      <trkpt lat="43.52161" lon="1.4507">
        <ele>243.35</ele>
        <time>2021-04-25T08:20:39Z</time>
      </trkpt>
      <trkpt lat="43.52147" lon="1.45071">
        <ele>246.72</ele>
        <time>2021-04-25T08:20:57Z</time>
      </trkpt>
      <trkpt lat="43.52138" lon="1.45064">
        <ele>249.6</ele>
        <time>2021-04-25T08:21:15Z</time>
      </trkpt>
      <trkpt lat="43.52144" lon="1.45066">
        <ele>250.08</ele>
        <time>2021-04-25T08:21:34Z</time>
      </trkpt>
      <trkpt lat="43.52143" lon="1.45066">
        <ele>250.08</ele>
        <time>2021-04-25T08:21:42Z</time>
      </trkpt>
      <trkpt lat="43.52142" lon="1.45066">
        <ele>249.12</ele>
        <time>2021-04-25T08:21:56Z</time>
      </trkpt>
      <trkpt lat="43.52142" lon="1.45066">
        <ele>253.93</ele>
        <time>2021-04-25T08:21:58Z</time>
      </trkpt>
      <trkpt lat="43.52142" lon="1.45066">
        <ele>250.56</ele>
        <time>2021-04-25T08:21:59Z</time>
      </trkpt>
      <trkpt lat="43.52143" lon="1.45064">
        <ele>243.83</ele>
        <time>2021-04-25T08:22:06Z</time>
      </trkpt>
      <trkpt lat="43.52142" lon="1.45065">
        <ele>253.93</ele>
        <time>2021-04-25T08:22:07Z</time>
      </trkpt>
      <trkpt lat="43.52142" lon="1.45066">
        <ele>249.6</ele>
        <time>2021-04-25T08:22:08Z</time>
      </trkpt>
      <trkpt lat="43.52143" lon="1.45065">
        <ele>250.08</ele>
        <time>2021-04-25T08:22:18Z</time>
      </trkpt>
      <trkpt lat="43.52143" lon="1.45069">
        <ele>251.04</ele>
        <time>2021-04-25T08:22:33Z</time>
      </trkpt>
      <trkpt lat="43.52143" lon="1.45068">
        <ele>251.04</ele>
        <time>2021-04-25T08:22:51Z</time>
      </trkpt>
      <trkpt lat="43.52142" lon="1.45068">
        <ele>251.52</ele>
        <time>2021-04-25T08:23:17Z</time>
      </trkpt>
      <trkpt lat="43.52143" lon="1.45069">
        <ele>250.08</ele>
        <time>2021-04-25T08:23:37Z</time>
      </trkpt>
      <trkpt lat="43.52142" lon="1.45069">
        <ele>250.08</ele>
        <time>2021-04-25T08:23:38Z</time>
      </trkpt>
      <trkpt lat="43.52142" lon="1.45069">
        <ele>251.04</ele>
        <time>2021-04-25T08:24:05Z</time>
      </trkpt>
      <trkpt lat="43.52145" lon="1.45065">
        <ele>251.04</ele>
        <time>2021-04-25T08:24:12Z</time>
      </trkpt>
      <trkpt lat="43.52164" lon="1.45051">
        <ele>249.6</ele>
        <time>2021-04-25T08:24:27Z</time>
      </trkpt>
      <trkpt lat="43.52179" lon="1.45045">
        <ele>248.64</ele>
        <time>2021-04-25T08:24:40Z</time>
      </trkpt>
      <trkpt lat="43.52188" lon="1.45044">
        <ele>250.08</ele>
        <time>2021-04-25T08:24:49Z</time>
      </trkpt>
      <trkpt lat="43.52197" lon="1.45045">
        <ele>251.04</ele>
        <time>2021-04-25T08:25:00Z</time>
      </trkpt>
      <trkpt lat="43.52208" lon="1.45047">
        <ele>252.48</ele>
        <time>2021-04-25T08:25:09Z</time>
      </trkpt>
      <trkpt lat="43.52222" lon="1.4504">
        <ele>254.89</ele>
        <time>2021-04-25T08:25:20Z</time>
      </trkpt>
      <trkpt lat="43.52223" lon="1.45034">
        <ele>254.89</ele>
        <time>2021-04-25T08:25:24Z</time>
      </trkpt>
      <trkpt lat="43.52226" lon="1.45023">
        <ele>255.85</ele>
        <time>2021-04-25T08:25:30Z</time>
      </trkpt>
      <trkpt lat="43.52261" lon="1.44996">
        <ele>257.29</ele>
        <time>2021-04-25T08:25:50Z</time>
      </trkpt>
      <trkpt lat="43.5229" lon="1.44961">
        <ele>259.21</ele>
        <time>2021-04-25T08:26:11Z</time>
      </trkpt>
      <trkpt lat="43.5231" lon="1.44929">
        <ele>259.69</ele>
        <time>2021-04-25T08:26:31Z</time>
      </trkpt>
      <trkpt lat="43.52335" lon="1.44887">
        <ele>259.69</ele>
        <time>2021-04-25T08:26:56Z</time>
      </trkpt>
      <trkpt lat="43.52349" lon="1.44863">
        <ele>259.69</ele>
        <time>2021-04-25T08:27:11Z</time>
      </trkpt>
      <trkpt lat="43.52353" lon="1.44858">
        <ele>259.69</ele>
        <time>2021-04-25T08:27:15Z</time>
      </trkpt>
      <trkpt lat="43.52369" lon="1.44831">
        <ele>260.17</ele>
        <time>2021-04-25T08:27:32Z</time>
      </trkpt>
      <trkpt lat="43.52387" lon="1.44808">
        <ele>260.17</ele>
        <time>2021-04-25T08:27:47Z</time>
      </trkpt>
      <trkpt lat="43.52402" lon="1.44776">
        <ele>260.65</ele>
        <time>2021-04-25T08:28:04Z</time>
      </trkpt>
      <trkpt lat="43.52421" lon="1.44741">
        <ele>260.65</ele>
        <time>2021-04-25T08:28:22Z</time>
      </trkpt>
      <trkpt lat="43.52433" lon="1.44711">
        <ele>259.69</ele>
        <time>2021-04-25T08:28:39Z</time>
      </trkpt>
      <trkpt lat="43.52448" lon="1.44677">
        <ele>260.17</ele>
        <time>2021-04-25T08:28:58Z</time>
      </trkpt>
      <trkpt lat="43.52457" lon="1.44655">
        <ele>261.14</ele>
        <time>2021-04-25T08:29:11Z</time>
      </trkpt>
      <trkpt lat="43.52479" lon="1.44615">
        <ele>261.62</ele>
        <time>2021-04-25T08:29:32Z</time>
      </trkpt>
      <trkpt lat="43.52503" lon="1.44569">
        <ele>259.69</ele>
        <time>2021-04-25T08:29:54Z</time>
      </trkpt>
      <trkpt lat="43.52518" lon="1.44558">
        <ele>259.21</ele>
        <time>2021-04-25T08:30:07Z</time>
      </trkpt>
      <trkpt lat="43.52522" lon="1.44557">
        <ele>260.65</ele>
        <time>2021-04-25T08:30:09Z</time>
      </trkpt>
      <trkpt lat="43.52547" lon="1.44556">
        <ele>261.14</ele>
        <time>2021-04-25T08:30:26Z</time>
      </trkpt>
      <trkpt lat="43.52571" lon="1.44556">
        <ele>261.14</ele>
        <time>2021-04-25T08:30:43Z</time>
      </trkpt>
      <trkpt lat="43.52594" lon="1.44552">
        <ele>261.14</ele>
        <time>2021-04-25T08:30:58Z</time>
      </trkpt>
      <trkpt lat="43.52623" lon="1.4455">
        <ele>262.58</ele>
        <time>2021-04-25T08:31:17Z</time>
      </trkpt>
      <trkpt lat="43.52652" lon="1.44554">
        <ele>264.98</ele>
        <time>2021-04-25T08:31:36Z</time>
      </trkpt>
      <trkpt lat="43.52682" lon="1.44538">
        <ele>264.98</ele>
        <time>2021-04-25T08:31:54Z</time>
      </trkpt>
      <trkpt lat="43.52711" lon="1.44514">
        <ele>264.02</ele>
        <time>2021-04-25T08:32:13Z</time>
      </trkpt>
      <trkpt lat="43.52716" lon="1.4451">
        <ele>264.02</ele>
        <time>2021-04-25T08:32:17Z</time>
      </trkpt>
      <trkpt lat="43.52722" lon="1.44504">
        <ele>264.02</ele>
        <time>2021-04-25T08:32:23Z</time>
      </trkpt>
      <trkpt lat="43.52725" lon="1.44498">
        <ele>264.02</ele>
        <time>2021-04-25T08:32:27Z</time>
      </trkpt>
      <trkpt lat="43.52732" lon="1.44486">
        <ele>264.02</ele>
        <time>2021-04-25T08:32:35Z</time>
      </trkpt>
      <trkpt lat="43.52734" lon="1.44478">
        <ele>264.02</ele>
        <time>2021-04-25T08:32:39Z</time>
      </trkpt>
      <trkpt lat="43.52736" lon="1.4447">
        <ele>264.02</ele>
        <time>2021-04-25T08:32:43Z</time>
      </trkpt>
      <trkpt lat="43.52737" lon="1.44462">
        <ele>264.02</ele>
        <time>2021-04-25T08:32:47Z</time>
      </trkpt>
      <trkpt lat="43.52738" lon="1.44454">
        <ele>264.02</ele>
        <time>2021-04-25T08:32:51Z</time>
      </trkpt>
      <trkpt lat="43.52747" lon="1.44417">
        <ele>263.54</ele>
        <time>2021-04-25T08:33:08Z</time>
      </trkpt>
      <trkpt lat="43.52767" lon="1.44392">
        <ele>265.46</ele>
        <time>2021-04-25T08:33:22Z</time>
      </trkpt>
      <trkpt lat="43.5277" lon="1.44385">
        <ele>264.02</ele>
        <time>2021-04-25T08:33:26Z</time>
      </trkpt>
      <trkpt lat="43.52783" lon="1.44356">
        <ele>264.02</ele>
        <time>2021-04-25T08:33:40Z</time>
      </trkpt>
      <trkpt lat="43.528" lon="1.44319">
        <ele>264.02</ele>
        <time>2021-04-25T08:33:59Z</time>
      </trkpt>
      <trkpt lat="43.52813" lon="1.44295">
        <ele>263.06</ele>
        <time>2021-04-25T08:34:16Z</time>
      </trkpt>
      <trkpt lat="43.52814" lon="1.44292">
        <ele>263.06</ele>
        <time>2021-04-25T08:34:18Z</time>
      </trkpt>
      <trkpt lat="43.52828" lon="1.44275">
        <ele>262.58</ele>
        <time>2021-04-25T08:34:36Z</time>
      </trkpt>
      <trkpt lat="43.5284" lon="1.44262">
        <ele>262.1</ele>
        <time>2021-04-25T08:34:51Z</time>
      </trkpt>
      <trkpt lat="43.52843" lon="1.44254">
        <ele>262.58</ele>
        <time>2021-04-25T08:35:04Z</time>
      </trkpt>
      <trkpt lat="43.52844" lon="1.44254">
        <ele>263.54</ele>
        <time>2021-04-25T08:35:27Z</time>
      </trkpt>
      <trkpt lat="43.52844" lon="1.44253">
        <ele>263.54</ele>
        <time>2021-04-25T08:35:52Z</time>
      </trkpt>
      <trkpt lat="43.52845" lon="1.44252">
        <ele>264.02</ele>
        <time>2021-04-25T08:36:17Z</time>
      </trkpt>
      <trkpt lat="43.52849" lon="1.44241">
        <ele>264.02</ele>
        <time>2021-04-25T08:36:38Z</time>
      </trkpt>
      <trkpt lat="43.5285" lon="1.4421">
        <ele>267.38</ele>
        <time>2021-04-25T08:36:53Z</time>
      </trkpt>
      <trkpt lat="43.52852" lon="1.44175">
        <ele>269.31</ele>
        <time>2021-04-25T08:37:11Z</time>
      </trkpt>
      <trkpt lat="43.52859" lon="1.44158">
        <ele>268.35</ele>
        <time>2021-04-25T08:37:20Z</time>
      </trkpt>
      <trkpt lat="43.52868" lon="1.44136">
        <ele>266.9</ele>
        <time>2021-04-25T08:37:32Z</time>
      </trkpt>
      <trkpt lat="43.52881" lon="1.44095">
        <ele>265.46</ele>
        <time>2021-04-25T08:37:52Z</time>
      </trkpt>
      <trkpt lat="43.52892" lon="1.44053">
        <ele>262.58</ele>
        <time>2021-04-25T08:38:11Z</time>
      </trkpt>
      <trkpt lat="43.52904" lon="1.4401">
        <ele>263.06</ele>
        <time>2021-04-25T08:38:31Z</time>
      </trkpt>
      <trkpt lat="43.52918" lon="1.43962">
        <ele>261.14</ele>
        <time>2021-04-25T08:38:55Z</time>
      </trkpt>
      <trkpt lat="43.5293" lon="1.43927">
        <ele>260.17</ele>
        <time>2021-04-25T08:39:13Z</time>
      </trkpt>
      <trkpt lat="43.52946" lon="1.43879">
        <ele>259.69</ele>
        <time>2021-04-25T08:39:35Z</time>
      </trkpt>
      <trkpt lat="43.52947" lon="1.43848">
        <ele>258.73</ele>
        <time>2021-04-25T08:39:49Z</time>
      </trkpt>
      <trkpt lat="43.52941" lon="1.43825">
        <ele>257.29</ele>
        <time>2021-04-25T08:40:01Z</time>
      </trkpt>
      <trkpt lat="43.52941" lon="1.43816">
        <ele>256.81</ele>
        <time>2021-04-25T08:40:05Z</time>
      </trkpt>
      <trkpt lat="43.52938" lon="1.43777">
        <ele>253.44</ele>
        <time>2021-04-25T08:40:22Z</time>
      </trkpt>
      <trkpt lat="43.52951" lon="1.43742">
        <ele>252.48</ele>
        <time>2021-04-25T08:40:40Z</time>
      </trkpt>
      <trkpt lat="43.52974" lon="1.43716">
        <ele>252.48</ele>
        <time>2021-04-25T08:40:57Z</time>
      </trkpt>
      <trkpt lat="43.53002" lon="1.43697">
        <ele>252.48</ele>
        <time>2021-04-25T08:41:16Z</time>
      </trkpt>
      <trkpt lat="43.5301" lon="1.43691">
        <ele>253.93</ele>
        <time>2021-04-25T08:41:22Z</time>
      </trkpt>
      <trkpt lat="43.53034" lon="1.43667">
        <ele>253.93</ele>
        <time>2021-04-25T08:41:40Z</time>
      </trkpt>
      <trkpt lat="43.53058" lon="1.43643">
        <ele>254.41</ele>
        <time>2021-04-25T08:41:59Z</time>
      </trkpt>
      <trkpt lat="43.53082" lon="1.43632">
        <ele>255.37</ele>
        <time>2021-04-25T08:42:16Z</time>
      </trkpt>
      <trkpt lat="43.53095" lon="1.43629">
        <ele>255.85</ele>
        <time>2021-04-25T08:42:26Z</time>
      </trkpt>
      <trkpt lat="43.53115" lon="1.4363">
        <ele>254.89</ele>
        <time>2021-04-25T08:42:45Z</time>
      </trkpt>
      <trkpt lat="43.53119" lon="1.43632">
        <ele>254.41</ele>
        <time>2021-04-25T08:43:01Z</time>
      </trkpt>
      <trkpt lat="43.53124" lon="1.43631">
        <ele>253.44</ele>
        <time>2021-04-25T08:43:26Z</time>
      </trkpt>
      <trkpt lat="43.53135" lon="1.43636">
        <ele>252</ele>
        <time>2021-04-25T08:43:42Z</time>
      </trkpt>
      <trkpt lat="43.53155" lon="1.43639">
        <ele>248.64</ele>
        <time>2021-04-25T08:43:56Z</time>
      </trkpt>
      <trkpt lat="43.53169" lon="1.43642">
        <ele>245.75</ele>
        <time>2021-04-25T08:44:09Z</time>
      </trkpt>
      <trkpt lat="43.53173" lon="1.43643">
        <ele>245.27</ele>
        <time>2021-04-25T08:44:13Z</time>
      </trkpt>
      <trkpt lat="43.5318" lon="1.43662">
        <ele>244.79</ele>
        <time>2021-04-25T08:44:25Z</time>
      </trkpt>
      <trkpt lat="43.53178" lon="1.43684">
        <ele>244.79</ele>
        <time>2021-04-25T08:44:37Z</time>
      </trkpt>
      <trkpt lat="43.53181" lon="1.43703">
        <ele>244.31</ele>
        <time>2021-04-25T08:44:50Z</time>
      </trkpt>
      <trkpt lat="43.53182" lon="1.43704">
        <ele>243.35</ele>
        <time>2021-04-25T08:44:54Z</time>
      </trkpt>
      <trkpt lat="43.53202" lon="1.43703">
        <ele>240.47</ele>
        <time>2021-04-25T08:45:08Z</time>
      </trkpt>
      <trkpt lat="43.53224" lon="1.43712">
        <ele>238.06</ele>
        <time>2021-04-25T08:45:23Z</time>
      </trkpt>
      <trkpt lat="43.53245" lon="1.43724">
        <ele>237.1</ele>
        <time>2021-04-25T08:45:36Z</time>
      </trkpt>
      <trkpt lat="43.53252" lon="1.43726">
        <ele>236.62</ele>
        <time>2021-04-25T08:45:42Z</time>
      </trkpt>
      <trkpt lat="43.53277" lon="1.43733">
        <ele>234.7</ele>
        <time>2021-04-25T08:45:57Z</time>
      </trkpt>
      <trkpt lat="43.53284" lon="1.43732">
        <ele>234.7</ele>
        <time>2021-04-25T08:46:02Z</time>
      </trkpt>
      <trkpt lat="43.53305" lon="1.43735">
        <ele>232.78</ele>
        <time>2021-04-25T08:46:17Z</time>
      </trkpt>
      <trkpt lat="43.53307" lon="1.43749">
        <ele>231.81</ele>
        <time>2021-04-25T08:46:24Z</time>
      </trkpt>
      <trkpt lat="43.53306" lon="1.43755">
        <ele>231.81</ele>
        <time>2021-04-25T08:46:27Z</time>
      </trkpt>
      <trkpt lat="43.53307" lon="1.43771">
        <ele>232.3</ele>
        <time>2021-04-25T08:46:34Z</time>
      </trkpt>
      <trkpt lat="43.53304" lon="1.43788">
        <ele>231.81</ele>
        <time>2021-04-25T08:46:43Z</time>
      </trkpt>
      <trkpt lat="43.53302" lon="1.43799">
        <ele>231.33</ele>
        <time>2021-04-25T08:46:48Z</time>
      </trkpt>
      <trkpt lat="43.53296" lon="1.43835">
        <ele>231.33</ele>
        <time>2021-04-25T08:47:04Z</time>
      </trkpt>
      <trkpt lat="43.53291" lon="1.43866">
        <ele>231.81</ele>
        <time>2021-04-25T08:47:19Z</time>
      </trkpt>
      <trkpt lat="43.53283" lon="1.43902">
        <ele>232.78</ele>
        <time>2021-04-25T08:47:35Z</time>
      </trkpt>
      <trkpt lat="43.53277" lon="1.43934">
        <ele>234.7</ele>
        <time>2021-04-25T08:47:51Z</time>
      </trkpt>
      <trkpt lat="43.53272" lon="1.43964">
        <ele>232.3</ele>
        <time>2021-04-25T08:48:05Z</time>
      </trkpt>
      <trkpt lat="43.5327" lon="1.4397">
        <ele>234.22</ele>
        <time>2021-04-25T08:48:08Z</time>
      </trkpt>
      <trkpt lat="43.53254" lon="1.43992">
        <ele>234.7</ele>
        <time>2021-04-25T08:48:24Z</time>
      </trkpt>
      <trkpt lat="43.5323" lon="1.44013">
        <ele>236.14</ele>
        <time>2021-04-25T08:48:43Z</time>
      </trkpt>
      <trkpt lat="43.53208" lon="1.44032">
        <ele>237.58</ele>
        <time>2021-04-25T08:49:00Z</time>
      </trkpt>
      <trkpt lat="43.53184" lon="1.44049">
        <ele>239.51</ele>
        <time>2021-04-25T08:49:18Z</time>
      </trkpt>
      <trkpt lat="43.53179" lon="1.44053">
        <ele>238.06</ele>
        <time>2021-04-25T08:49:22Z</time>
      </trkpt>
      <trkpt lat="43.53153" lon="1.44074">
        <ele>239.51</ele>
        <time>2021-04-25T08:49:41Z</time>
      </trkpt>
      <trkpt lat="43.53133" lon="1.44086">
        <ele>239.99</ele>
        <time>2021-04-25T08:49:58Z</time>
      </trkpt>
      <trkpt lat="43.53124" lon="1.44103">
        <ele>239.02</ele>
        <time>2021-04-25T08:50:08Z</time>
      </trkpt>
      <trkpt lat="43.53109" lon="1.44131">
        <ele>237.1</ele>
        <time>2021-04-25T08:50:24Z</time>
      </trkpt>
      <trkpt lat="43.53099" lon="1.44158">
        <ele>236.62</ele>
        <time>2021-04-25T08:50:40Z</time>
      </trkpt>
      <trkpt lat="43.53093" lon="1.44171">
        <ele>236.62</ele>
        <time>2021-04-25T08:50:47Z</time>
      </trkpt>
      <trkpt lat="43.53081" lon="1.442">
        <ele>237.1</ele>
        <time>2021-04-25T08:51:02Z</time>
      </trkpt>
      <trkpt lat="43.53076" lon="1.44215">
        <ele>237.1</ele>
        <time>2021-04-25T08:51:10Z</time>
      </trkpt>
      <trkpt lat="43.53071" lon="1.44242">
        <ele>234.7</ele>
        <time>2021-04-25T08:51:25Z</time>
      </trkpt>
      <trkpt lat="43.53068" lon="1.44269">
        <ele>233.74</ele>
        <time>2021-04-25T08:51:37Z</time>
      </trkpt>
      <trkpt lat="43.53069" lon="1.44278">
        <ele>232.78</ele>
        <time>2021-04-25T08:51:41Z</time>
      </trkpt>
      <trkpt lat="43.53055" lon="1.44296">
        <ele>230.85</ele>
        <time>2021-04-25T08:51:52Z</time>
      </trkpt>
      <trkpt lat="43.53049" lon="1.44308">
        <ele>228.93</ele>
        <time>2021-04-25T08:51:59Z</time>
      </trkpt>
      <trkpt lat="43.53047" lon="1.44309">
        <ele>227.97</ele>
        <time>2021-04-25T08:52:00Z</time>
      </trkpt>
      <trkpt lat="43.53042" lon="1.4432">
        <ele>227.01</ele>
        <time>2021-04-25T08:52:07Z</time>
      </trkpt>
      <trkpt lat="43.53028" lon="1.4434">
        <ele>226.05</ele>
        <time>2021-04-25T08:52:22Z</time>
      </trkpt>
      <trkpt lat="43.53025" lon="1.44346">
        <ele>226.05</ele>
        <time>2021-04-25T08:52:26Z</time>
      </trkpt>
      <trkpt lat="43.53023" lon="1.4435">
        <ele>226.05</ele>
        <time>2021-04-25T08:52:29Z</time>
      </trkpt>
      <trkpt lat="43.53016" lon="1.4438">
        <ele>226.05</ele>
        <time>2021-04-25T08:52:44Z</time>
      </trkpt>
      <trkpt lat="43.53016" lon="1.44389">
        <ele>226.05</ele>
        <time>2021-04-25T08:52:48Z</time>
      </trkpt>
      <trkpt lat="43.53017" lon="1.44397">
        <ele>226.05</ele>
        <time>2021-04-25T08:52:53Z</time>
      </trkpt>
      <trkpt lat="43.53017" lon="1.44401">
        <ele>226.05</ele>
        <time>2021-04-25T08:52:55Z</time>
      </trkpt>
      <trkpt lat="43.53018" lon="1.44405">
        <ele>226.05</ele>
        <time>2021-04-25T08:52:57Z</time>
      </trkpt>
      <trkpt lat="43.53016" lon="1.44429">
        <ele>226.53</ele>
        <time>2021-04-25T08:53:09Z</time>
      </trkpt>
      <trkpt lat="43.53019" lon="1.44446">
        <ele>226.53</ele>
        <time>2021-04-25T08:53:15Z</time>
      </trkpt>
      <trkpt lat="43.5302" lon="1.44456">
        <ele>226.53</ele>
        <time>2021-04-25T08:53:19Z</time>
      </trkpt>
      <trkpt lat="43.53014" lon="1.44487">
        <ele>228.45</ele>
        <time>2021-04-25T08:53:34Z</time>
      </trkpt>
      <trkpt lat="43.52996" lon="1.4451">
        <ele>229.41</ele>
        <time>2021-04-25T08:53:51Z</time>
      </trkpt>
      <trkpt lat="43.52978" lon="1.44534">
        <ele>230.85</ele>
        <time>2021-04-25T08:54:08Z</time>
      </trkpt>
      <trkpt lat="43.5296" lon="1.44557">
        <ele>233.74</ele>
        <time>2021-04-25T08:54:27Z</time>
      </trkpt>
      <trkpt lat="43.52934" lon="1.44575">
        <ele>237.1</ele>
        <time>2021-04-25T08:54:46Z</time>
      </trkpt>
      <trkpt lat="43.52915" lon="1.44586">
        <ele>239.02</ele>
        <time>2021-04-25T08:55:04Z</time>
      </trkpt>
      <trkpt lat="43.52909" lon="1.44587">
        <ele>239.99</ele>
        <time>2021-04-25T08:55:19Z</time>
      </trkpt>
      <trkpt lat="43.52906" lon="1.44588">
        <ele>240.47</ele>
        <time>2021-04-25T08:55:36Z</time>
      </trkpt>
      <trkpt lat="43.52906" lon="1.44588">
        <ele>239.51</ele>
        <time>2021-04-25T08:55:38Z</time>
      </trkpt>
      <trkpt lat="43.52906" lon="1.44587">
        <ele>239.51</ele>
        <time>2021-04-25T08:55:58Z</time>
      </trkpt>
      <trkpt lat="43.52906" lon="1.44587">
        <ele>240.47</ele>
        <time>2021-04-25T08:56:17Z</time>
      </trkpt>
      <trkpt lat="43.52901" lon="1.44592">
        <ele>239.51</ele>
        <time>2021-04-25T08:56:24Z</time>
      </trkpt>
      <trkpt lat="43.52898" lon="1.44594">
        <ele>239.02</ele>
        <time>2021-04-25T08:56:39Z</time>
      </trkpt>
      <trkpt lat="43.52897" lon="1.44594">
        <ele>240.47</ele>
        <time>2021-04-25T08:57:02Z</time>
      </trkpt>
      <trkpt lat="43.52898" lon="1.44593">
        <ele>239.51</ele>
        <time>2021-04-25T08:57:13Z</time>
      </trkpt>
      <trkpt lat="43.52893" lon="1.44596">
        <ele>239.51</ele>
        <time>2021-04-25T08:57:28Z</time>
      </trkpt>
      <trkpt lat="43.52888" lon="1.446">
        <ele>240.95</ele>
        <time>2021-04-25T08:57:33Z</time>
      </trkpt>
      <trkpt lat="43.52874" lon="1.44613">
        <ele>240.95</ele>
        <time>2021-04-25T08:57:48Z</time>
      </trkpt>
      <trkpt lat="43.52849" lon="1.44634">
        <ele>241.43</ele>
        <time>2021-04-25T08:58:07Z</time>
      </trkpt>
      <trkpt lat="43.52832" lon="1.44647">
        <ele>241.91</ele>
        <time>2021-04-25T08:58:20Z</time>
      </trkpt>
      <trkpt lat="43.52813" lon="1.44664">
        <ele>242.87</ele>
        <time>2021-04-25T08:58:37Z</time>
      </trkpt>
      <trkpt lat="43.52794" lon="1.4468">
        <ele>243.83</ele>
        <time>2021-04-25T08:58:53Z</time>
      </trkpt>
      <trkpt lat="43.52774" lon="1.44696">
        <ele>245.27</ele>
        <time>2021-04-25T08:59:09Z</time>
      </trkpt>
      <trkpt lat="43.52754" lon="1.44714">
        <ele>247.68</ele>
        <time>2021-04-25T08:59:26Z</time>
      </trkpt>
      <trkpt lat="43.52749" lon="1.44719">
        <ele>248.64</ele>
        <time>2021-04-25T08:59:31Z</time>
      </trkpt>
      <trkpt lat="43.52745" lon="1.44723">
        <ele>249.12</ele>
        <time>2021-04-25T08:59:35Z</time>
      </trkpt>
      <trkpt lat="43.5273" lon="1.4474">
        <ele>250.08</ele>
        <time>2021-04-25T08:59:49Z</time>
      </trkpt>
      <trkpt lat="43.52708" lon="1.4476">
        <ele>251.04</ele>
        <time>2021-04-25T09:00:06Z</time>
      </trkpt>
      <trkpt lat="43.52693" lon="1.44768">
        <ele>252.96</ele>
        <time>2021-04-25T09:00:19Z</time>
      </trkpt>
      <trkpt lat="43.52674" lon="1.44769">
        <ele>255.37</ele>
        <time>2021-04-25T09:00:33Z</time>
      </trkpt>
      <trkpt lat="43.52669" lon="1.44767">
        <ele>257.29</ele>
        <time>2021-04-25T09:00:38Z</time>
      </trkpt>
      <trkpt lat="43.52647" lon="1.44751">
        <ele>259.21</ele>
        <time>2021-04-25T09:00:55Z</time>
      </trkpt>
      <trkpt lat="43.52642" lon="1.4474">
        <ele>260.65</ele>
        <time>2021-04-25T09:01:09Z</time>
      </trkpt>
      <trkpt lat="43.5264" lon="1.44739">
        <ele>260.65</ele>
        <time>2021-04-25T09:01:17Z</time>
      </trkpt>
      <trkpt lat="43.52639" lon="1.44747">
        <ele>259.21</ele>
        <time>2021-04-25T09:01:22Z</time>
      </trkpt>
      <trkpt lat="43.5264" lon="1.44751">
        <ele>257.77</ele>
        <time>2021-04-25T09:01:26Z</time>
      </trkpt>
      <trkpt lat="43.52641" lon="1.44753">
        <ele>257.29</ele>
        <time>2021-04-25T09:01:28Z</time>
      </trkpt>
      <trkpt lat="43.52639" lon="1.44767">
        <ele>255.37</ele>
        <time>2021-04-25T09:01:36Z</time>
      </trkpt>
      <trkpt lat="43.5264" lon="1.4477">
        <ele>254.89</ele>
        <time>2021-04-25T09:01:38Z</time>
      </trkpt>
      <trkpt lat="43.5264" lon="1.44785">
        <ele>253.44</ele>
        <time>2021-04-25T09:01:46Z</time>
      </trkpt>
      <trkpt lat="43.52645" lon="1.44807">
        <ele>251.04</ele>
        <time>2021-04-25T09:01:59Z</time>
      </trkpt>
      <trkpt lat="43.52651" lon="1.44834">
        <ele>246.23</ele>
        <time>2021-04-25T09:02:16Z</time>
      </trkpt>
      <trkpt lat="43.52657" lon="1.44861">
        <ele>243.35</ele>
        <time>2021-04-25T09:02:32Z</time>
      </trkpt>
      <trkpt lat="43.52663" lon="1.44873">
        <ele>241.43</ele>
        <time>2021-04-25T09:02:40Z</time>
      </trkpt>
      <trkpt lat="43.52672" lon="1.44892">
        <ele>238.06</ele>
        <time>2021-04-25T09:02:53Z</time>
      </trkpt>
      <trkpt lat="43.52676" lon="1.44911">
        <ele>234.7</ele>
        <time>2021-04-25T09:03:08Z</time>
      </trkpt>
      <trkpt lat="43.5268" lon="1.44921">
        <ele>232.3</ele>
        <time>2021-04-25T09:03:16Z</time>
      </trkpt>
      <trkpt lat="43.52685" lon="1.44942">
        <ele>229.41</ele>
        <time>2021-04-25T09:03:32Z</time>
      </trkpt>
      <trkpt lat="43.52691" lon="1.44961">
        <ele>226.05</ele>
        <time>2021-04-25T09:03:46Z</time>
      </trkpt>
      <trkpt lat="43.52701" lon="1.44983">
        <ele>224.12</ele>
        <time>2021-04-25T09:03:59Z</time>
      </trkpt>
      <trkpt lat="43.52703" lon="1.44986">
        <ele>223.64</ele>
        <time>2021-04-25T09:04:02Z</time>
      </trkpt>
      <trkpt lat="43.5271" lon="1.45008">
        <ele>220.76</ele>
        <time>2021-04-25T09:04:17Z</time>
      </trkpt>
      <trkpt lat="43.52715" lon="1.4503">
        <ele>217.88</ele>
        <time>2021-04-25T09:04:28Z</time>
      </trkpt>
      <trkpt lat="43.52733" lon="1.45042">
        <ele>215.47</ele>
        <time>2021-04-25T09:04:43Z</time>
      </trkpt>
      <trkpt lat="43.52756" lon="1.45046">
        <ele>213.07</ele>
        <time>2021-04-25T09:04:58Z</time>
      </trkpt>
      <trkpt lat="43.52776" lon="1.45053">
        <ele>212.11</ele>
        <time>2021-04-25T09:05:11Z</time>
      </trkpt>
      <trkpt lat="43.52796" lon="1.45063">
        <ele>211.15</ele>
        <time>2021-04-25T09:05:24Z</time>
      </trkpt>
      <trkpt lat="43.52807" lon="1.45072">
        <ele>208.26</ele>
        <time>2021-04-25T09:05:37Z</time>
      </trkpt>
      <trkpt lat="43.52818" lon="1.4508">
        <ele>206.34</ele>
        <time>2021-04-25T09:05:48Z</time>
      </trkpt>
      <trkpt lat="43.52825" lon="1.45087">
        <ele>203.46</ele>
        <time>2021-04-25T09:06:00Z</time>
      </trkpt>
      <trkpt lat="43.52838" lon="1.451">
        <ele>200.09</ele>
        <time>2021-04-25T09:06:15Z</time>
      </trkpt>
      <trkpt lat="43.5285" lon="1.45111">
        <ele>196.73</ele>
        <time>2021-04-25T09:06:27Z</time>
      </trkpt>
      <trkpt lat="43.52854" lon="1.45116">
        <ele>196.25</ele>
        <time>2021-04-25T09:06:32Z</time>
      </trkpt>
      <trkpt lat="43.52854" lon="1.45132">
        <ele>194.32</ele>
        <time>2021-04-25T09:06:41Z</time>
      </trkpt>
      <trkpt lat="43.52857" lon="1.45144">
        <ele>194.32</ele>
        <time>2021-04-25T09:06:49Z</time>
      </trkpt>
      <trkpt lat="43.52864" lon="1.45171">
        <ele>194.32</ele>
        <time>2021-04-25T09:07:03Z</time>
      </trkpt>
      <trkpt lat="43.5287" lon="1.45184">
        <ele>195.77</ele>
        <time>2021-04-25T09:07:11Z</time>
      </trkpt>
      <trkpt lat="43.52876" lon="1.45195">
        <ele>196.73</ele>
        <time>2021-04-25T09:07:19Z</time>
      </trkpt>
      <trkpt lat="43.52887" lon="1.45215">
        <ele>200.09</ele>
        <time>2021-04-25T09:07:34Z</time>
      </trkpt>
      <trkpt lat="43.5289" lon="1.45219">
        <ele>201.53</ele>
        <time>2021-04-25T09:07:39Z</time>
      </trkpt>
      <trkpt lat="43.52904" lon="1.45232">
        <ele>204.9</ele>
        <time>2021-04-25T09:07:54Z</time>
      </trkpt>
      <trkpt lat="43.52915" lon="1.45243">
        <ele>208.74</ele>
        <time>2021-04-25T09:08:10Z</time>
      </trkpt>
      <trkpt lat="43.52924" lon="1.45257">
        <ele>210.67</ele>
        <time>2021-04-25T09:08:22Z</time>
      </trkpt>
      <trkpt lat="43.52939" lon="1.45271">
        <ele>213.55</ele>
        <time>2021-04-25T09:08:36Z</time>
      </trkpt>
      <trkpt lat="43.52948" lon="1.45282">
        <ele>216.43</ele>
        <time>2021-04-25T09:08:49Z</time>
      </trkpt>
      <trkpt lat="43.52955" lon="1.45289">
        <ele>219.32</ele>
        <time>2021-04-25T09:09:03Z</time>
      </trkpt>
      <trkpt lat="43.52962" lon="1.45297">
        <ele>222.68</ele>
        <time>2021-04-25T09:09:17Z</time>
      </trkpt>
      <trkpt lat="43.52969" lon="1.45307">
        <ele>225.57</ele>
        <time>2021-04-25T09:09:33Z</time>
      </trkpt>
      <trkpt lat="43.52978" lon="1.45316">
        <ele>228.45</ele>
        <time>2021-04-25T09:09:46Z</time>
      </trkpt>
      <trkpt lat="43.52988" lon="1.45331">
        <ele>231.33</ele>
        <time>2021-04-25T09:10:01Z</time>
      </trkpt>
      <trkpt lat="43.52996" lon="1.45347">
        <ele>234.7</ele>
        <time>2021-04-25T09:10:17Z</time>
      </trkpt>
      <trkpt lat="43.53005" lon="1.45361">
        <ele>237.58</ele>
        <time>2021-04-25T09:10:32Z</time>
      </trkpt>
      <trkpt lat="43.53011" lon="1.4537">
        <ele>240.95</ele>
        <time>2021-04-25T09:10:43Z</time>
      </trkpt>
      <trkpt lat="43.53019" lon="1.45385">
        <ele>243.83</ele>
        <time>2021-04-25T09:10:58Z</time>
      </trkpt>
      <trkpt lat="43.53021" lon="1.45393">
        <ele>245.75</ele>
        <time>2021-04-25T09:11:05Z</time>
      </trkpt>
      <trkpt lat="43.53032" lon="1.45407">
        <ele>247.68</ele>
        <time>2021-04-25T09:11:20Z</time>
      </trkpt>
      <trkpt lat="43.53042" lon="1.45413">
        <ele>247.68</ele>
        <time>2021-04-25T09:11:35Z</time>
      </trkpt>
      <trkpt lat="43.53042" lon="1.45413">
        <ele>248.16</ele>
        <time>2021-04-25T09:11:49Z</time>
      </trkpt>
      <trkpt lat="43.53042" lon="1.45412">
        <ele>248.16</ele>
        <time>2021-04-25T09:12:07Z</time>
      </trkpt>
      <trkpt lat="43.53042" lon="1.45412">
        <ele>246.72</ele>
        <time>2021-04-25T09:12:28Z</time>
      </trkpt>
      <trkpt lat="43.53042" lon="1.45412">
        <ele>246.72</ele>
        <time>2021-04-25T09:12:29Z</time>
      </trkpt>
      <trkpt lat="43.53042" lon="1.45412">
        <ele>247.2</ele>
        <time>2021-04-25T09:12:53Z</time>
      </trkpt>
      <trkpt lat="43.53042" lon="1.45411">
        <ele>247.2</ele>
        <time>2021-04-25T09:13:16Z</time>
      </trkpt>
      <trkpt lat="43.5304" lon="1.45411">
        <ele>246.72</ele>
        <time>2021-04-25T09:13:43Z</time>
      </trkpt>
      <trkpt lat="43.53041" lon="1.45411">
        <ele>246.72</ele>
        <time>2021-04-25T09:14:03Z</time>
      </trkpt>
      <trkpt lat="43.53042" lon="1.45412">
        <ele>246.72</ele>
        <time>2021-04-25T09:14:22Z</time>
      </trkpt>
      <trkpt lat="43.53041" lon="1.45411">
        <ele>246.72</ele>
        <time>2021-04-25T09:14:44Z</time>
      </trkpt>
      <trkpt lat="43.53041" lon="1.45412">
        <ele>246.23</ele>
        <time>2021-04-25T09:15:03Z</time>
      </trkpt>
      <trkpt lat="43.53044" lon="1.45413">
        <ele>246.23</ele>
        <time>2021-04-25T09:15:19Z</time>
      </trkpt>
      <trkpt lat="43.53044" lon="1.45413">
        <ele>246.23</ele>
        <time>2021-04-25T09:15:33Z</time>
      </trkpt>
      <trkpt lat="43.53044" lon="1.45413">
        <ele>246.23</ele>
        <time>2021-04-25T09:15:57Z</time>
      </trkpt>
      <trkpt lat="43.53044" lon="1.45413">
        <ele>246.23</ele>
        <time>2021-04-25T09:16:18Z</time>
      </trkpt>
      <trkpt lat="43.53048" lon="1.45422">
        <ele>245.75</ele>
        <time>2021-04-25T09:16:37Z</time>
      </trkpt>
      <trkpt lat="43.53048" lon="1.45444">
        <ele>245.75</ele>
        <time>2021-04-25T09:16:52Z</time>
      </trkpt>
      <trkpt lat="43.53039" lon="1.45471">
        <ele>246.72</ele>
        <time>2021-04-25T09:17:10Z</time>
      </trkpt>
      <trkpt lat="43.53037" lon="1.45475">
        <ele>246.72</ele>
        <time>2021-04-25T09:17:13Z</time>
      </trkpt>
      <trkpt lat="43.53024" lon="1.45502">
        <ele>247.68</ele>
        <time>2021-04-25T09:17:33Z</time>
      </trkpt>
      <trkpt lat="43.53009" lon="1.45524">
        <ele>248.64</ele>
        <time>2021-04-25T09:17:51Z</time>
      </trkpt>
      <trkpt lat="43.52993" lon="1.45551">
        <ele>248.64</ele>
        <time>2021-04-25T09:18:12Z</time>
      </trkpt>
      <trkpt lat="43.5298" lon="1.4557">
        <ele>249.6</ele>
        <time>2021-04-25T09:18:28Z</time>
      </trkpt>
      <trkpt lat="43.5297" lon="1.45581">
        <ele>250.08</ele>
        <time>2021-04-25T09:18:38Z</time>
      </trkpt>
      <trkpt lat="43.5296" lon="1.45609">
        <ele>251.52</ele>
        <time>2021-04-25T09:18:55Z</time>
      </trkpt>
      <trkpt lat="43.52944" lon="1.45641">
        <ele>252.96</ele>
        <time>2021-04-25T09:19:15Z</time>
      </trkpt>
      <trkpt lat="43.52934" lon="1.45657">
        <ele>254.89</ele>
        <time>2021-04-25T09:19:28Z</time>
      </trkpt>
      <trkpt lat="43.52929" lon="1.45668">
        <ele>254.41</ele>
        <time>2021-04-25T09:19:35Z</time>
      </trkpt>
      <trkpt lat="43.52915" lon="1.45686">
        <ele>255.85</ele>
        <time>2021-04-25T09:19:50Z</time>
      </trkpt>
      <trkpt lat="43.52914" lon="1.45687">
        <ele>255.85</ele>
        <time>2021-04-25T09:19:51Z</time>
      </trkpt>
      <trkpt lat="43.52915" lon="1.457">
        <ele>255.85</ele>
        <time>2021-04-25T09:20:00Z</time>
      </trkpt>
      <trkpt lat="43.52914" lon="1.45707">
        <ele>255.37</ele>
        <time>2021-04-25T09:20:14Z</time>
      </trkpt>
      <trkpt lat="43.52914" lon="1.45706">
        <ele>256.33</ele>
        <time>2021-04-25T09:20:22Z</time>
      </trkpt>
      <trkpt lat="43.52913" lon="1.45705">
        <ele>255.37</ele>
        <time>2021-04-25T09:20:42Z</time>
      </trkpt>
    </trkseg>
  </trk>
</gpx>